KAL35 RKSI-KATL
Flight info
| Callsign | KAL35 |
|---|---|
| Flight time | N/A |
| Altitude | 31000 |
| Route | EGOBA2C EGOBA Y697 LANAT Y51 SAMON Y142 GTC Y512 ADNAP R591 ADGOR/N0495F330 DCT AGEDI DCT AKISU DCT ASPIN DCT AAMYY DCT SYA DCT AMOND DCT ALDOZ DCT ALUFF/N0485F350 DCT SPY DCT AKN DCT MDO DCT YAK DCT 59N130W DCT YXJ DCT YEX/N0484F370 DCT 52N110W 50N104W DCT MOT DCT DSM Q19 STL DCT TINGS DCT HITMN DCT NEWBB DCT IHAVE DCT MTHEW CHPPR1 |
| Aircraft | B77W/H-SDE1E2E3FGHIJ2J3J4J5M1RWXY/LB1D1 |
Departure
| Time | N/A |
|---|---|
| Airport | Incheon International Airport (RKSI) |
Arrival
| Time | 2026-05-07 15:47 |
|---|---|
| Airport | Hartsfield Jackson Atlanta International Airport (KATL) |
| Time | Latitude | Longitude | Altitude | Speed | Heading |
|---|---|---|---|---|---|
| 2026-05-07 15:03 | 37.16379 | -88.06460 | 33094 ft | 546 kts | 146° |
| 2026-05-07 15:03 | 37.14562 | -88.03965 | 33094 ft | 544 kts | 146° |
| 2026-05-07 15:03 | 37.09452 | -87.96965 | 33089 ft | 546 kts | 147° |
| 2026-05-07 15:04 | 37.04307 | -87.89929 | 33089 ft | 543 kts | 147° |
| 2026-05-07 15:04 | 36.99130 | -87.82877 | 33085 ft | 549 kts | 147° |
| 2026-05-07 15:05 | 36.94003 | -87.75891 | 33087 ft | 545 kts | 147° |
| 2026-05-07 15:05 | 36.88846 | -87.68888 | 33104 ft | 542 kts | 147° |
| 2026-05-07 15:06 | 36.83800 | -87.62048 | 33105 ft | 542 kts | 147° |
| 2026-05-07 15:06 | 36.78628 | -87.55057 | 33103 ft | 542 kts | 147° |
| 2026-05-07 15:07 | 36.73491 | -87.48126 | 33102 ft | 542 kts | 147° |
| 2026-05-07 15:07 | 36.68307 | -87.41152 | 33108 ft | 549 kts | 147° |
| 2026-05-07 15:08 | 36.63129 | -87.34187 | 33098 ft | 545 kts | 147° |
| 2026-05-07 15:08 | 36.57922 | -87.27206 | 33073 ft | 547 kts | 147° |
| 2026-05-07 15:09 | 36.52778 | -87.20318 | 33068 ft | 539 kts | 147° |
| 2026-05-07 15:09 | 36.47639 | -87.13463 | 33063 ft | 544 kts | 147° |
| 2026-05-07 15:10 | 36.42557 | -87.06687 | 33060 ft | 537 kts | 147° |
| 2026-05-07 15:10 | 36.37416 | -86.99857 | 33065 ft | 542 kts | 147° |
| 2026-05-07 15:11 | 36.32259 | -86.93012 | 33064 ft | 538 kts | 147° |
| 2026-05-07 15:11 | 36.27109 | -86.86198 | 33065 ft | 544 kts | 147° |
| 2026-05-07 15:12 | 36.21946 | -86.79376 | 33066 ft | 544 kts | 147° |
| 2026-05-07 15:12 | 36.16752 | -86.72527 | 33066 ft | 543 kts | 148° |
| 2026-05-07 15:13 | 36.13997 | -86.69352 | 33059 ft | 521 kts | 156° |
| 2026-05-07 15:13 | 36.11121 | -86.66845 | 33057 ft | 502 kts | 165° |
| 2026-05-07 15:13 | 36.05073 | -86.62471 | 33060 ft | 498 kts | 166° |
| 2026-05-07 15:14 | 35.99038 | -86.58187 | 33056 ft | 498 kts | 166° |
| 2026-05-07 15:14 | 35.92976 | -86.53911 | 33061 ft | 501 kts | 166° |
| 2026-05-07 15:15 | 35.86921 | -86.49646 | 33073 ft | 500 kts | 166° |
| 2026-05-07 15:15 | 35.80848 | -86.45391 | 33063 ft | 501 kts | 166° |
| 2026-05-07 15:16 | 35.74722 | -86.41102 | 33060 ft | 502 kts | 166° |
| 2026-05-07 15:16 | 35.68634 | -86.36798 | 33056 ft | 501 kts | 165° |
| 2026-05-07 15:17 | 35.62566 | -86.32488 | 33012 ft | 501 kts | 166° |
| 2026-05-07 15:17 | 35.56515 | -86.28196 | 33015 ft | 500 kts | 166° |
| 2026-05-07 15:18 | 35.50435 | -86.23897 | 33013 ft | 499 kts | 165° |
| 2026-05-07 15:18 | 35.44350 | -86.19601 | 33007 ft | 502 kts | 164° |
| 2026-05-07 15:19 | 35.41403 | -86.17116 | 33007 ft | 520 kts | 157° |
| 2026-05-07 15:19 | 35.38566 | -86.14387 | 33006 ft | 521 kts | 155° |
| 2026-05-07 15:19 | 35.32835 | -86.08808 | 33008 ft | 525 kts | 155° |
| 2026-05-07 15:20 | 35.27105 | -86.03240 | 33011 ft | 523 kts | 155° |
| 2026-05-07 15:20 | 35.21342 | -85.97701 | 33004 ft | 524 kts | 155° |
| 2026-05-07 15:21 | 35.15572 | -85.92175 | 33003 ft | 519 kts | 155° |
| 2026-05-07 15:21 | 35.09842 | -85.86700 | 32994 ft | 514 kts | 156° |
| 2026-05-07 15:22 | 35.07092 | -85.84059 | 32984 ft | 497 kts | 156° |
| 2026-05-07 15:22 | 35.04382 | -85.81471 | 32979 ft | 495 kts | 156° |
| 2026-05-07 15:22 | 35.01613 | -85.78854 | 32974 ft | 508 kts | 156° |
| 2026-05-07 15:22 | 34.98791 | -85.76187 | 32941 ft | 522 kts | 155° |
| 2026-05-07 15:23 | 34.95864 | -85.73417 | 32378 ft | 531 kts | 155° |
| 2026-05-07 15:23 | 34.92965 | -85.70667 | 31453 ft | 536 kts | 154° |
| 2026-05-07 15:23 | 34.89995 | -85.67847 | 30543 ft | 538 kts | 154° |
| 2026-05-07 15:23 | 34.87046 | -85.65042 | 30013 ft | 532 kts | 154° |
| 2026-05-07 15:24 | 34.84331 | -85.62463 | 29505 ft | 526 kts | 154° |
| 2026-05-07 15:24 | 34.81376 | -85.59660 | 28912 ft | 522 kts | 154° |
| 2026-05-07 15:24 | 34.78513 | -85.56950 | 28312 ft | 519 kts | 154° |
| 2026-05-07 15:24 | 34.75688 | -85.54278 | 27695 ft | 516 kts | 154° |
| 2026-05-07 15:25 | 34.72859 | -85.51603 | 27082 ft | 513 kts | 154° |
| 2026-05-07 15:25 | 34.70034 | -85.48935 | 26446 ft | 510 kts | 153° |
| 2026-05-07 15:25 | 34.67239 | -85.46298 | 25833 ft | 507 kts | 153° |
| 2026-05-07 15:25 | 34.64477 | -85.43692 | 25158 ft | 500 kts | 153° |
| 2026-05-07 15:26 | 34.61731 | -85.41100 | 24571 ft | 489 kts | 153° |
| 2026-05-07 15:26 | 34.59094 | -85.38615 | 23987 ft | 480 kts | 153° |
| 2026-05-07 15:26 | 34.56471 | -85.36146 | 23390 ft | 471 kts | 153° |
| 2026-05-07 15:26 | 34.53870 | -85.33702 | 22776 ft | 463 kts | 153° |
| 2026-05-07 15:27 | 34.51356 | -85.31343 | 22169 ft | 455 kts | 153° |
| 2026-05-07 15:27 | 34.48847 | -85.28991 | 21615 ft | 450 kts | 153° |
| 2026-05-07 15:27 | 34.46390 | -85.26693 | 20998 ft | 449 kts | 153° |
| 2026-05-07 15:27 | 34.43899 | -85.24366 | 20379 ft | 447 kts | 153° |
| 2026-05-07 15:28 | 34.41434 | -85.22061 | 19782 ft | 446 kts | 153° |
| 2026-05-07 15:28 | 34.39001 | -85.19789 | 19192 ft | 444 kts | 152° |
| 2026-05-07 15:28 | 34.36550 | -85.17499 | 18592 ft | 442 kts | 152° |
| 2026-05-07 15:28 | 34.34109 | -85.15222 | 17989 ft | 440 kts | 152° |
| 2026-05-07 15:29 | 34.31689 | -85.12965 | 17411 ft | 438 kts | 152° |
| 2026-05-07 15:29 | 34.29281 | -85.10721 | 16825 ft | 435 kts | 152° |
| 2026-05-07 15:29 | 34.26845 | -85.08453 | 16216 ft | 433 kts | 151° |
| 2026-05-07 15:29 | 34.24485 | -85.06255 | 15590 ft | 426 kts | 151° |
| 2026-05-07 15:30 | 34.22152 | -85.04082 | 15023 ft | 418 kts | 151° |
| 2026-05-07 15:30 | 34.19866 | -85.01956 | 14435 ft | 411 kts | 150° |
| 2026-05-07 15:30 | 34.17613 | -84.99863 | 13851 ft | 404 kts | 150° |
| 2026-05-07 15:30 | 34.15391 | -84.97800 | 13283 ft | 396 kts | 150° |
| 2026-05-07 15:31 | 34.13221 | -84.95774 | 13048 ft | 382 kts | 150° |
| 2026-05-07 15:31 | 34.11124 | -84.93789 | 13009 ft | 387 kts | 149° |
| 2026-05-07 15:31 | 34.08989 | -84.91770 | 12816 ft | 390 kts | 149° |
| 2026-05-07 15:31 | 34.06865 | -84.89757 | 12277 ft | 383 kts | 149° |
| 2026-05-07 15:32 | 34.04796 | -84.87797 | 12026 ft | 377 kts | 149° |
| 2026-05-07 15:32 | 34.02725 | -84.85840 | 11998 ft | 378 kts | 149° |
| 2026-05-07 15:32 | 34.00632 | -84.83864 | 11998 ft | 380 kts | 149° |
| 2026-05-07 15:32 | 33.98545 | -84.81895 | 11990 ft | 380 kts | 149° |
| 2026-05-07 15:33 | 33.96452 | -84.79919 | 11994 ft | 380 kts | 149° |
| 2026-05-07 15:33 | 33.94352 | -84.77939 | 11986 ft | 378 kts | 149° |
| 2026-05-07 15:33 | 33.92297 | -84.76003 | 11991 ft | 378 kts | 149° |
| 2026-05-07 15:33 | 33.90232 | -84.74056 | 11988 ft | 367 kts | 149° |
| 2026-05-07 15:34 | 33.88411 | -84.72335 | 11991 ft | 351 kts | 149° |
| 2026-05-07 15:34 | 33.86525 | -84.70556 | 11994 ft | 335 kts | 150° |
| 2026-05-07 15:34 | 33.84715 | -84.68853 | 11986 ft | 320 kts | 150° |
| 2026-05-07 15:34 | 33.82982 | -84.67225 | 11989 ft | 306 kts | 151° |
| 2026-05-07 15:35 | 33.81313 | -84.65665 | 12002 ft | 306 kts | 151° |
| 2026-05-07 15:35 | 33.79613 | -84.64078 | 11997 ft | 308 kts | 151° |
| 2026-05-07 15:35 | 33.77932 | -84.62502 | 11987 ft | 306 kts | 151° |
| 2026-05-07 15:35 | 33.76235 | -84.60913 | 11998 ft | 309 kts | 150° |
| 2026-05-07 15:36 | 33.74609 | -84.59200 | 11980 ft | 317 kts | 135° |
| 2026-05-07 15:36 | 33.73562 | -84.56815 | 11985 ft | 331 kts | 109° |
| 2026-05-07 15:36 | 33.73268 | -84.54012 | 11995 ft | 338 kts | 94° |
| 2026-05-07 15:36 | 33.73259 | -84.51180 | 11992 ft | 337 kts | 91° |
| 2026-05-07 15:37 | 33.73277 | -84.48359 | 11715 ft | 342 kts | 91° |
| 2026-05-07 15:37 | 33.73288 | -84.45502 | 11237 ft | 338 kts | 91° |
| 2026-05-07 15:37 | 33.73292 | -84.42690 | 10741 ft | 335 kts | 91° |
| 2026-05-07 15:37 | 33.73294 | -84.39922 | 10248 ft | 331 kts | 91° |
| 2026-05-07 15:38 | 33.73296 | -84.37151 | 9751 ft | 328 kts | 91° |
| 2026-05-07 15:38 | 33.73296 | -84.34442 | 9253 ft | 324 kts | 91° |
| 2026-05-07 15:38 | 33.73295 | -84.31853 | 8793 ft | 320 kts | 91° |
| 2026-05-07 15:38 | 33.73294 | -84.29285 | 8345 ft | 316 kts | 90° |
| 2026-05-07 15:39 | 33.73298 | -84.26672 | 7924 ft | 310 kts | 90° |
| 2026-05-07 15:39 | 33.73302 | -84.24110 | 7573 ft | 301 kts | 90° |
| 2026-05-07 15:39 | 33.73304 | -84.21626 | 7233 ft | 292 kts | 90° |
| 2026-05-07 15:39 | 33.73306 | -84.19198 | 6892 ft | 285 kts | 89° |
| 2026-05-07 15:40 | 33.73213 | -84.16850 | 6537 ft | 278 kts | 104° |
| 2026-05-07 15:40 | 33.72414 | -84.14803 | 6169 ft | 266 kts | 135° |
| 2026-05-07 15:40 | 33.70993 | -84.13526 | 5807 ft | 247 kts | 166° |
| 2026-05-07 15:40 | 33.69392 | -84.12981 | 5475 ft | 238 kts | 174° |
| 2026-05-07 15:41 | 33.67792 | -84.12695 | 5115 ft | 225 kts | 194° |
| 2026-05-07 15:41 | 33.66458 | -84.13329 | 4977 ft | 191 kts | 230° |
| 2026-05-07 15:41 | 33.65675 | -84.14542 | 5013 ft | 180 kts | 243° |
| 2026-05-07 15:41 | 33.65095 | -84.15855 | 4983 ft | 171 kts | 256° |
| 2026-05-07 15:42 | 33.64906 | -84.17231 | 4987 ft | 169 kts | 269° |
| 2026-05-07 15:42 | 33.64894 | -84.18647 | 4987 ft | 168 kts | 272° |
| 2026-05-07 15:42 | 33.64910 | -84.20072 | 4989 ft | 167 kts | 272° |
| 2026-05-07 15:42 | 33.64922 | -84.21458 | 4988 ft | 169 kts | 272° |
| 2026-05-07 15:43 | 33.64929 | -84.22891 | 4855 ft | 174 kts | 271° |
| 2026-05-07 15:43 | 33.64933 | -84.24385 | 4346 ft | 181 kts | 272° |
| 2026-05-07 15:43 | 33.64937 | -84.25898 | 3710 ft | 184 kts | 272° |
| 2026-05-07 15:43 | 33.64941 | -84.27431 | 3228 ft | 181 kts | 272° |
| 2026-05-07 15:44 | 33.64944 | -84.28912 | 2997 ft | 171 kts | 272° |
| 2026-05-07 15:44 | 33.64946 | -84.30279 | 2777 ft | 160 kts | 272° |
| 2026-05-07 15:44 | 33.64948 | -84.31615 | 2559 ft | 159 kts | 272° |
| 2026-05-07 15:44 | 33.64949 | -84.32955 | 2341 ft | 160 kts | 272° |
| 2026-05-07 15:45 | 33.64950 | -84.34282 | 2124 ft | 158 kts | 272° |
| 2026-05-07 15:45 | 33.64951 | -84.35586 | 1915 ft | 153 kts | 272° |
| 2026-05-07 15:45 | 33.64952 | -84.36815 | 1725 ft | 141 kts | 272° |
| 2026-05-07 15:45 | 33.64952 | -84.37991 | 1538 ft | 142 kts | 272° |
| 2026-05-07 15:46 | 33.64950 | -84.40348 | 1161 ft | 139 kts | 272° |
| 2026-05-07 15:46 | 33.64950 | -84.41507 | 1019 ft | 131 kts | 272° |
| 2026-05-07 15:46 | 33.64954 | -84.42448 | 1021 ft | 91 kts | 270° |
| 2026-05-07 15:47 | 33.64952 | -84.43012 | 1027 ft | 37 kts | 268° |
| 2026-05-07 15:47 | 33.64914 | -84.43208 | 1030 ft | 14 kts | 248° |
| 2026-05-07 15:47 | 33.64890 | -84.43272 | 1030 ft | 3 kts | 242° |
| 2026-05-07 15:47 | 33.64883 | -84.43285 | 1030 ft | 0 kts | 242° |
| 2026-05-07 15:48 | 33.64854 | -84.43315 | 1030 ft | 11 kts | 195° |
| 2026-05-07 15:48 | 33.64795 | -84.43255 | 1029 ft | 14 kts | 106° |
| 2026-05-07 15:48 | 33.64789 | -84.43088 | 1027 ft | 22 kts | 90° |
| 2026-05-07 15:48 | 33.64790 | -84.42905 | 1025 ft | 21 kts | 90° |
| 2026-05-07 15:49 | 33.64789 | -84.42723 | 1023 ft | 21 kts | 90° |
| 2026-05-07 15:49 | 33.64790 | -84.42545 | 1022 ft | 21 kts | 90° |
| 2026-05-07 15:49 | 33.64791 | -84.42371 | 1021 ft | 20 kts | 90° |
| 2026-05-07 15:49 | 33.64767 | -84.42250 | 1020 ft | 14 kts | 147° |
| 2026-05-07 15:50 | 33.64669 | -84.42238 | 1020 ft | 14 kts | 180° |
| 2026-05-07 15:50 | 33.64572 | -84.42239 | 1020 ft | 13 kts | 180° |
| 2026-05-07 15:50 | 33.64481 | -84.42236 | 1021 ft | 12 kts | 177° |
| 2026-05-07 15:50 | 33.64409 | -84.42234 | 1024 ft | 8 kts | 179° |
| 2026-05-07 15:51 | 33.64348 | -84.42233 | 1027 ft | 10 kts | 180° |
| 2026-05-07 15:51 | 33.64254 | -84.42239 | 1030 ft | 17 kts | 184° |
| 2026-05-07 15:51 | 33.64115 | -84.42239 | 1030 ft | 20 kts | 179° |
| 2026-05-07 15:51 | 33.63979 | -84.42241 | 1030 ft | 18 kts | 185° |
| 2026-05-07 15:52 | 33.63853 | -84.42239 | 1030 ft | 17 kts | 174° |
| 2026-05-07 15:52 | 33.63733 | -84.42236 | 1030 ft | 13 kts | 180° |
| 2026-05-07 15:52 | 33.63657 | -84.42194 | 1028 ft | 13 kts | 111° |
| 2026-05-07 15:52 | 33.63653 | -84.42078 | 1027 ft | 14 kts | 90° |
| 2026-05-07 15:53 | 33.63654 | -84.41962 | 1027 ft | 13 kts | 90° |
| 2026-05-07 15:53 | 33.63660 | -84.41853 | 1027 ft | 10 kts | 62° |
| 2026-05-07 15:53 | 33.63718 | -84.41827 | 1029 ft | 5 kts | 356° |
| 2026-05-07 15:53 | 33.63739 | -84.41845 | 1030 ft | 3 kts | 282° |
| 2026-05-07 15:54 | 33.63739 | -84.41885 | 1030 ft | 5 kts | 270° |
| 2026-05-07 15:54 | 33.63739 | -84.41921 | 1030 ft | 0 kts | 270° |